sensor_id;sensor_type;location;lat;lon;timestamp;P1;durP1;ratioP1;P2;durP2;ratioP2
66595;SDS011;59017;49.252;18.838;2022-08-18T00:00:03;14.73;;;10.52;;
66595;SDS011;59017;49.252;18.838;2022-08-18T00:02:30;13.80;;;10.80;;
66595;SDS011;59017;49.252;18.838;2022-08-18T00:04:56;18.45;;;10.57;;
66595;SDS011;59017;49.252;18.838;2022-08-18T00:07:23;17.25;;;10.50;;
66595;SDS011;59017;49.252;18.838;2022-08-18T00:09:54;17.92;;;10.55;;
66595;SDS011;59017;49.252;18.838;2022-08-18T00:12:25;13.77;;;10.30;;
66595;SDS011;59017;49.252;18.838;2022-08-18T00:14:56;13.85;;;10.45;;
66595;SDS011;59017;49.252;18.838;2022-08-18T00:17:27;23.08;;;10.55;;
66595;SDS011;59017;49.252;18.838;2022-08-18T00:19:52;18.63;;;10.80;;
66595;SDS011;59017;49.252;18.838;2022-08-18T00:22:18;17.90;;;10.57;;
66595;SDS011;59017;49.252;18.838;2022-08-18T00:24:46;19.33;;;11.05;;
66595;SDS011;59017;49.252;18.838;2022-08-18T00:27:18;19.10;;;11.27;;
66595;SDS011;59017;49.252;18.838;2022-08-18T00:29:49;23.48;;;12.07;;
66595;SDS011;59017;49.252;18.838;2022-08-18T00:32:17;21.38;;;11.52;;
66595;SDS011;59017;49.252;18.838;2022-08-18T00:34:54;22.10;;;12.10;;
66595;SDS011;59017;49.252;18.838;2022-08-18T00:37:20;18.77;;;11.35;;
66595;SDS011;59017;49.252;18.838;2022-08-18T00:39:49;23.67;;;11.95;;
66595;SDS011;59017;49.252;18.838;2022-08-18T00:42:18;31.08;;;12.50;;
66595;SDS011;59017;49.252;18.838;2022-08-18T00:44:50;30.45;;;11.73;;
66595;SDS011;59017;49.252;18.838;2022-08-18T00:47:16;20.23;;;12.43;;
66595;SDS011;59017;49.252;18.838;2022-08-18T00:49:41;29.35;;;12.52;;
66595;SDS011;59017;49.252;18.838;2022-08-18T00:52:11;26.45;;;11.48;;
66595;SDS011;59017;49.252;18.838;2022-08-18T00:54:38;24.35;;;12.43;;
66595;SDS011;59017;49.252;18.838;2022-08-18T00:57:06;25.95;;;11.52;;
66595;SDS011;59017;49.252;18.838;2022-08-18T00:59:40;26.35;;;11.70;;
66595;SDS011;59017;49.252;18.838;2022-08-18T01:02:11;23.55;;;12.23;;
66595;SDS011;59017;49.252;18.838;2022-08-18T01:07:34;27.02;;;12.88;;
66595;SDS011;59017;49.252;18.838;2022-08-18T01:10:08;29.60;;;13.60;;
66595;SDS011;59017;49.252;18.838;2022-08-18T01:12:33;24.75;;;12.32;;
66595;SDS011;59017;49.252;18.838;2022-08-18T01:14:59;27.38;;;11.38;;
66595;SDS011;59017;49.252;18.838;2022-08-18T01:17:25;23.52;;;12.15;;
66595;SDS011;59017;49.252;18.838;2022-08-18T01:20:11;25.73;;;12.77;;
66595;SDS011;59017;49.252;18.838;2022-08-18T01:23:18;24.25;;;12.05;;
66595;SDS011;59017;49.252;18.838;2022-08-18T01:25:46;28.13;;;12.13;;
66595;SDS011;59017;49.252;18.838;2022-08-18T01:28:29;26.63;;;12.32;;
66595;SDS011;59017;49.252;18.838;2022-08-18T01:30:57;28.90;;;12.75;;
66595;SDS011;59017;49.252;18.838;2022-08-18T01:33:24;20.35;;;12.48;;
66595;SDS011;59017;49.252;18.838;2022-08-18T01:35:57;23.85;;;12.05;;
66595;SDS011;59017;49.252;18.838;2022-08-18T01:38:24;21.27;;;12.15;;
66595;SDS011;59017;49.252;18.838;2022-08-18T01:40:50;19.05;;;11.95;;
66595;SDS011;59017;49.252;18.838;2022-08-18T01:43:16;14.00;;;10.85;;
66595;SDS011;59017;49.252;18.838;2022-08-18T01:45:42;19.00;;;12.02;;
66595;SDS011;59017;49.252;18.838;2022-08-18T01:48:08;21.48;;;12.05;;
66595;SDS011;59017;49.252;18.838;2022-08-18T01:50:34;17.00;;;11.63;;
66595;SDS011;59017;49.252;18.838;2022-08-18T01:53:02;18.38;;;10.98;;
66595;SDS011;59017;49.252;18.838;2022-08-18T01:55:30;20.42;;;11.90;;
66595;SDS011;59017;49.252;18.838;2022-08-18T01:57:57;18.00;;;11.95;;
66595;SDS011;59017;49.252;18.838;2022-08-18T02:00:22;15.13;;;11.70;;
66595;SDS011;59017;49.252;18.838;2022-08-18T02:02:49;15.73;;;11.43;;
66595;SDS011;59017;49.252;18.838;2022-08-18T02:05:19;16.65;;;11.55;;
66595;SDS011;59017;49.252;18.838;2022-08-18T02:07:51;18.50;;;11.75;;
66595;SDS011;59017;49.252;18.838;2022-08-18T02:10:17;16.63;;;11.52;;
66595;SDS011;59017;49.252;18.838;2022-08-18T02:12:43;15.25;;;11.70;;
66595;SDS011;59017;49.252;18.838;2022-08-18T02:15:09;16.60;;;12.50;;
66595;SDS011;59017;49.252;18.838;2022-08-18T02:17:43;18.63;;;11.70;;
66595;SDS011;59017;49.252;18.838;2022-08-18T02:20:10;18.45;;;11.68;;
66595;SDS011;59017;49.252;18.838;2022-08-18T02:22:38;18.50;;;11.68;;
66595;SDS011;59017;49.252;18.838;2022-08-18T02:25:05;14.90;;;11.52;;
66595;SDS011;59017;49.252;18.838;2022-08-18T02:27:31;18.75;;;11.15;;
66595;SDS011;59017;49.252;18.838;2022-08-18T02:29:58;14.60;;;11.18;;
66595;SDS011;59017;49.252;18.838;2022-08-18T02:32:25;15.85;;;11.48;;
66595;SDS011;59017;49.252;18.838;2022-08-18T02:34:50;17.33;;;10.82;;
66595;SDS011;59017;49.252;18.838;2022-08-18T02:37:16;14.05;;;11.23;;
66595;SDS011;59017;49.252;18.838;2022-08-18T02:39:42;20.35;;;12.57;;
66595;SDS011;59017;49.252;18.838;2022-08-18T02:42:07;17.55;;;11.85;;
66595;SDS011;59017;49.252;18.838;2022-08-18T02:44:33;22.42;;;11.68;;
66595;SDS011;59017;49.252;18.838;2022-08-18T02:46:59;17.90;;;11.70;;
66595;SDS011;59017;49.252;18.838;2022-08-18T02:49:25;16.45;;;11.57;;
66595;SDS011;59017;49.252;18.838;2022-08-18T02:51:52;18.08;;;11.18;;
66595;SDS011;59017;49.252;18.838;2022-08-18T02:54:21;16.67;;;11.30;;
66595;SDS011;59017;49.252;18.838;2022-08-18T02:56:48;20.00;;;11.05;;
66595;SDS011;59017;49.252;18.838;2022-08-18T02:59:19;17.75;;;11.30;;
66595;SDS011;59017;49.252;18.838;2022-08-18T03:01:52;14.35;;;11.18;;
66595;SDS011;59017;49.252;18.838;2022-08-18T03:04:20;17.30;;;11.88;;
66595;SDS011;59017;49.252;18.838;2022-08-18T03:06:49;19.48;;;10.95;;
66595;SDS011;59017;49.252;18.838;2022-08-18T03:09:15;17.58;;;11.73;;
66595;SDS011;59017;49.252;18.838;2022-08-18T03:11:42;17.30;;;11.38;;
66595;SDS011;59017;49.252;18.838;2022-08-18T03:14:08;18.65;;;11.85;;
66595;SDS011;59017;49.252;18.838;2022-08-18T03:16:34;18.80;;;12.55;;
66595;SDS011;59017;49.252;18.838;2022-08-18T03:19:02;18.67;;;11.35;;
66595;SDS011;59017;49.252;18.838;2022-08-18T03:21:29;17.92;;;11.50;;
66595;SDS011;59017;49.252;18.838;2022-08-18T03:23:56;17.77;;;11.68;;
66595;SDS011;59017;49.252;18.838;2022-08-18T03:26:23;19.45;;;11.45;;
66595;SDS011;59017;49.252;18.838;2022-08-18T03:28:50;18.95;;;11.48;;
66595;SDS011;59017;49.252;18.838;2022-08-18T03:31:17;22.17;;;12.38;;
66595;SDS011;59017;49.252;18.838;2022-08-18T03:33:44;21.40;;;11.43;;
66595;SDS011;59017;49.252;18.838;2022-08-18T03:36:12;29.45;;;12.70;;
66595;SDS011;59017;49.252;18.838;2022-08-18T03:38:40;18.67;;;11.70;;
66595;SDS011;59017;49.252;18.838;2022-08-18T03:41:07;20.52;;;12.13;;
66595;SDS011;59017;49.252;18.838;2022-08-18T03:43:38;14.57;;;11.32;;
66595;SDS011;59017;49.252;18.838;2022-08-18T03:46:05;14.18;;;12.40;;
66595;SDS011;59017;49.252;18.838;2022-08-18T03:48:34;24.98;;;12.32;;
66595;SDS011;59017;49.252;18.838;2022-08-18T03:51:05;15.55;;;11.38;;
66595;SDS011;59017;49.252;18.838;2022-08-18T03:53:33;15.52;;;11.27;;
66595;SDS011;59017;49.252;18.838;2022-08-18T03:55:59;20.58;;;11.43;;
66595;SDS011;59017;49.252;18.838;2022-08-18T03:58:25;19.15;;;12.38;;
66595;SDS011;59017;49.252;18.838;2022-08-18T04:00:51;18.30;;;11.73;;
66595;SDS011;59017;49.252;18.838;2022-08-18T04:03:17;15.75;;;12.40;;
66595;SDS011;59017;49.252;18.838;2022-08-18T04:05:42;17.40;;;12.02;;
66595;SDS011;59017;49.252;18.838;2022-08-18T04:08:08;16.65;;;12.45;;
66595;SDS011;59017;49.252;18.838;2022-08-18T04:10:33;18.75;;;12.25;;
66595;SDS011;59017;49.252;18.838;2022-08-18T04:12:59;15.70;;;10.95;;
66595;SDS011;59017;49.252;18.838;2022-08-18T04:15:29;13.45;;;10.85;;
66595;SDS011;59017;49.252;18.838;2022-08-18T04:18:00;20.55;;;11.88;;
66595;SDS011;59017;49.252;18.838;2022-08-18T04:20:31;15.07;;;11.20;;
66595;SDS011;59017;49.252;18.838;2022-08-18T04:22:57;20.77;;;12.05;;
66595;SDS011;59017;49.252;18.838;2022-08-18T04:25:23;21.10;;;12.27;;
66595;SDS011;59017;49.252;18.838;2022-08-18T04:27:49;17.40;;;11.98;;
66595;SDS011;59017;49.252;18.838;2022-08-18T04:30:15;17.60;;;12.05;;
66595;SDS011;59017;49.252;18.838;2022-08-18T04:32:40;19.58;;;12.68;;
66595;SDS011;59017;49.252;18.838;2022-08-18T04:35:07;19.13;;;11.70;;
66595;SDS011;59017;49.252;18.838;2022-08-18T04:37:35;15.57;;;11.60;;
66595;SDS011;59017;49.252;18.838;2022-08-18T04:40:02;18.00;;;11.57;;
66595;SDS011;59017;49.252;18.838;2022-08-18T04:42:29;18.48;;;11.85;;
66595;SDS011;59017;49.252;18.838;2022-08-18T04:44:54;19.85;;;12.25;;
66595;SDS011;59017;49.252;18.838;2022-08-18T04:47:20;18.20;;;11.70;;
66595;SDS011;59017;49.252;18.838;2022-08-18T04:49:46;15.98;;;12.05;;
66595;SDS011;59017;49.252;18.838;2022-08-18T04:52:11;20.85;;;11.75;;
66595;SDS011;59017;49.252;18.838;2022-08-18T04:54:55;17.75;;;11.82;;
66595;SDS011;59017;49.252;18.838;2022-08-18T04:57:21;17.15;;;11.52;;
66595;SDS011;59017;49.252;18.838;2022-08-18T04:59:48;17.42;;;11.30;;
66595;SDS011;59017;49.252;18.838;2022-08-18T05:02:15;20.92;;;12.27;;
66595;SDS011;59017;49.252;18.838;2022-08-18T05:04:42;22.48;;;12.00;;
66595;SDS011;59017;49.252;18.838;2022-08-18T05:07:11;18.58;;;11.85;;
66595;SDS011;59017;49.252;18.838;2022-08-18T05:09:38;17.88;;;12.38;;
66595;SDS011;59017;49.252;18.838;2022-08-18T05:12:06;20.63;;;12.98;;
66595;SDS011;59017;49.252;18.838;2022-08-18T05:14:33;23.45;;;12.50;;
66595;SDS011;59017;49.252;18.838;2022-08-18T05:17:00;19.23;;;12.65;;
66595;SDS011;59017;49.252;18.838;2022-08-18T05:19:27;24.45;;;13.20;;
66595;SDS011;59017;49.252;18.838;2022-08-18T05:21:55;21.85;;;13.32;;
66595;SDS011;59017;49.252;18.838;2022-08-18T05:24:22;18.75;;;12.52;;
66595;SDS011;59017;49.252;18.838;2022-08-18T05:26:50;30.52;;;12.95;;
66595;SDS011;59017;49.252;18.838;2022-08-18T05:29:16;20.17;;;12.88;;
66595;SDS011;59017;49.252;18.838;2022-08-18T05:31:42;21.35;;;13.52;;
66595;SDS011;59017;49.252;18.838;2022-08-18T05:34:09;23.55;;;14.02;;
66595;SDS011;59017;49.252;18.838;2022-08-18T05:44:38;20.98;;;13.90;;
66595;SDS011;59017;49.252;18.838;2022-08-18T05:47:28;24.15;;;14.57;;
66595;SDS011;59017;49.252;18.838;2022-08-18T05:49:57;19.83;;;13.85;;
66595;SDS011;59017;49.252;18.838;2022-08-18T05:55:28;19.70;;;14.27;;
66595;SDS011;59017;49.252;18.838;2022-08-18T05:58:24;22.30;;;14.60;;
66595;SDS011;59017;49.252;18.838;2022-08-18T06:00:56;21.65;;;14.38;;
66595;SDS011;59017;49.252;18.838;2022-08-18T06:03:35;22.38;;;14.43;;
66595;SDS011;59017;49.252;18.838;2022-08-18T06:06:15;20.73;;;14.27;;
66595;SDS011;59017;49.252;18.838;2022-08-18T06:11:43;25.00;;;14.45;;
66595;SDS011;59017;49.252;18.838;2022-08-18T06:14:09;24.13;;;13.63;;
66595;SDS011;59017;49.252;18.838;2022-08-18T06:27:44;25.02;;;15.43;;
66595;SDS011;59017;49.252;18.838;2022-08-18T06:35:51;27.33;;;15.13;;
66595;SDS011;59017;49.252;18.838;2022-08-18T06:41:44;21.40;;;14.98;;
66595;SDS011;59017;49.252;18.838;2022-08-18T06:44:18;23.30;;;15.45;;
66595;SDS011;59017;49.252;18.838;2022-08-18T06:54:50;24.27;;;14.85;;
66595;SDS011;59017;49.252;18.838;2022-08-18T06:57:26;32.38;;;15.23;;
66595;SDS011;59017;49.252;18.838;2022-08-18T06:59:55;26.80;;;16.08;;
66595;SDS011;59017;49.252;18.838;2022-08-18T07:02:24;23.42;;;15.93;;
66595;SDS011;59017;49.252;18.838;2022-08-18T07:07:40;25.27;;;15.90;;
66595;SDS011;59017;49.252;18.838;2022-08-18T07:10:26;25.15;;;16.45;;
66595;SDS011;59017;49.252;18.838;2022-08-18T07:13:04;24.13;;;16.17;;
66595;SDS011;59017;49.252;18.838;2022-08-18T07:15:36;22.38;;;16.20;;
66595;SDS011;59017;49.252;18.838;2022-08-18T07:18:05;24.85;;;16.65;;
66595;SDS011;59017;49.252;18.838;2022-08-18T07:25:49;20.08;;;16.00;;
66595;SDS011;59017;49.252;18.838;2022-08-18T07:29:11;25.63;;;17.05;;
66595;SDS011;59017;49.252;18.838;2022-08-18T07:31:29;21.90;;;15.85;;
66595;SDS011;59017;49.252;18.838;2022-08-18T07:36:49;20.10;;;15.88;;
66595;SDS011;59017;49.252;18.838;2022-08-18T07:41:57;26.27;;;15.85;;
66595;SDS011;59017;49.252;18.838;2022-08-18T07:49:43;24.60;;;15.15;;
66595;SDS011;59017;49.252;18.838;2022-08-18T07:52:13;34.03;;;16.58;;
66595;SDS011;59017;49.252;18.838;2022-08-18T08:00:18;22.00;;;15.85;;
66595;SDS011;59017;49.252;18.838;2022-08-18T08:19:50;22.77;;;15.55;;
66595;SDS011;59017;49.252;18.838;2022-08-18T08:22:20;22.42;;;15.63;;
66595;SDS011;59017;49.252;18.838;2022-08-18T08:27:28;22.35;;;14.90;;
66595;SDS011;59017;49.252;18.838;2022-08-18T08:30:14;23.15;;;15.90;;
66595;SDS011;59017;49.252;18.838;2022-08-18T08:38:08;24.38;;;15.18;;
66595;SDS011;59017;49.252;18.838;2022-08-18T08:40:55;24.45;;;14.70;;
66595;SDS011;59017;49.252;18.838;2022-08-18T08:43:35;21.98;;;14.18;;
66595;SDS011;59017;49.252;18.838;2022-08-18T08:46:10;24.23;;;14.18;;
66595;SDS011;59017;49.252;18.838;2022-08-18T08:48:44;23.13;;;14.20;;
66595;SDS011;59017;49.252;18.838;2022-08-18T08:51:27;19.45;;;13.93;;
66595;SDS011;59017;49.252;18.838;2022-08-18T08:53:54;22.77;;;13.70;;
66595;SDS011;59017;49.252;18.838;2022-08-18T08:56:32;19.02;;;13.38;;
66595;SDS011;59017;49.252;18.838;2022-08-18T08:59:05;20.80;;;14.20;;
66595;SDS011;59017;49.252;18.838;2022-08-18T09:23:27;17.95;;;13.15;;
66595;SDS011;59017;49.252;18.838;2022-08-18T09:28:52;17.85;;;12.98;;
66595;SDS011;59017;49.252;18.838;2022-08-18T09:31:30;19.83;;;13.10;;
66595;SDS011;59017;49.252;18.838;2022-08-18T09:34:08;20.52;;;13.52;;
66595;SDS011;59017;49.252;18.838;2022-08-18T09:39:38;17.88;;;12.98;;
66595;SDS011;59017;49.252;18.838;2022-08-18T09:42:52;22.67;;;12.57;;
66595;SDS011;59017;49.252;18.838;2022-08-18T09:51:13;22.42;;;11.50;;
66595;SDS011;59017;49.252;18.838;2022-08-18T09:56:12;15.88;;;11.50;;
66595;SDS011;59017;49.252;18.838;2022-08-18T09:58:47;20.48;;;13.15;;
66595;SDS011;59017;49.252;18.838;2022-08-18T10:01:35;21.73;;;11.55;;
66595;SDS011;59017;49.252;18.838;2022-08-18T10:04:15;21.20;;;12.27;;
66595;SDS011;59017;49.252;18.838;2022-08-18T10:06:45;19.93;;;11.63;;
66595;SDS011;59017;49.252;18.838;2022-08-18T10:14:33;18.30;;;11.80;;
66595;SDS011;59017;49.252;18.838;2022-08-18T10:23:10;23.33;;;11.68;;
66595;SDS011;59017;49.252;18.838;2022-08-18T10:26:05;15.63;;;10.88;;
66595;SDS011;59017;49.252;18.838;2022-08-18T10:29:03;19.08;;;11.52;;
66595;SDS011;59017;49.252;18.838;2022-08-18T10:31:30;14.80;;;10.32;;
66595;SDS011;59017;49.252;18.838;2022-08-18T10:34:14;12.00;;;8.82;;
66595;SDS011;59017;49.252;18.838;2022-08-18T10:39:58;10.80;;;9.32;;
66595;SDS011;59017;49.252;18.838;2022-08-18T10:42:33;11.63;;;10.00;;
66595;SDS011;59017;49.252;18.838;2022-08-18T10:45:14;15.27;;;9.40;;
66595;SDS011;59017;49.252;18.838;2022-08-18T10:50:54;12.00;;;9.15;;
66595;SDS011;59017;49.252;18.838;2022-08-18T10:56:22;14.60;;;8.90;;
66595;SDS011;59017;49.252;18.838;2022-08-18T11:04:58;13.70;;;8.68;;
66595;SDS011;59017;49.252;18.838;2022-08-18T11:07:30;12.07;;;8.95;;
66595;SDS011;59017;49.252;18.838;2022-08-18T11:09:57;10.88;;;8.52;;
66595;SDS011;59017;49.252;18.838;2022-08-18T11:12:39;12.98;;;8.43;;
66595;SDS011;59017;49.252;18.838;2022-08-18T11:20:22;10.63;;;8.40;;
66595;SDS011;59017;49.252;18.838;2022-08-18T11:22:55;11.00;;;7.90;;
66595;SDS011;59017;49.252;18.838;2022-08-18T11:25:28;14.45;;;8.10;;
66595;SDS011;59017;49.252;18.838;2022-08-18T11:27:55;14.23;;;8.00;;
66595;SDS011;59017;49.252;18.838;2022-08-18T11:30:22;10.55;;;8.07;;
66595;SDS011;59017;49.252;18.838;2022-08-18T11:32:51;15.00;;;7.80;;
66595;SDS011;59017;49.252;18.838;2022-08-18T11:35:20;12.10;;;7.50;;
66595;SDS011;59017;49.252;18.838;2022-08-18T11:38:04;9.35;;;5.90;;
66595;SDS011;59017;49.252;18.838;2022-08-18T11:40:40;11.15;;;5.55;;
66595;SDS011;59017;49.252;18.838;2022-08-18T11:48:10;11.05;;;6.80;;
66595;SDS011;59017;49.252;18.838;2022-08-18T11:50:47;9.48;;;6.72;;
66595;SDS011;59017;49.252;18.838;2022-08-18T11:56:00;11.70;;;6.60;;
66595;SDS011;59017;49.252;18.838;2022-08-18T12:01:34;10.73;;;7.00;;
66595;SDS011;59017;49.252;18.838;2022-08-18T12:04:13;10.43;;;6.30;;
66595;SDS011;59017;49.252;18.838;2022-08-18T12:09:16;11.23;;;6.40;;
66595;SDS011;59017;49.252;18.838;2022-08-18T12:12:28;9.02;;;5.63;;
66595;SDS011;59017;49.252;18.838;2022-08-18T12:17:24;6.38;;;5.22;;
66595;SDS011;59017;49.252;18.838;2022-08-18T12:19:51;8.43;;;5.10;;
66595;SDS011;59017;49.252;18.838;2022-08-18T12:22:21;9.38;;;5.78;;
66595;SDS011;59017;49.252;18.838;2022-08-18T12:27:15;11.77;;;5.53;;
66595;SDS011;59017;49.252;18.838;2022-08-18T12:29:42;9.02;;;6.30;;
66595;SDS011;59017;49.252;18.838;2022-08-18T12:32:08;10.77;;;5.75;;
66595;SDS011;59017;49.252;18.838;2022-08-18T12:34:34;10.70;;;5.60;;
66595;SDS011;59017;49.252;18.838;2022-08-18T12:37:00;9.68;;;5.30;;
66595;SDS011;59017;49.252;18.838;2022-08-18T12:39:26;14.68;;;6.22;;
66595;SDS011;59017;49.252;18.838;2022-08-18T12:41:53;8.90;;;5.63;;
66595;SDS011;59017;49.252;18.838;2022-08-18T12:44:19;11.52;;;5.38;;
66595;SDS011;59017;49.252;18.838;2022-08-18T12:46:45;7.28;;;4.95;;
66595;SDS011;59017;49.252;18.838;2022-08-18T12:49:16;8.85;;;5.30;;
66595;SDS011;59017;49.252;18.838;2022-08-18T12:51:45;5.57;;;4.25;;
66595;SDS011;59017;49.252;18.838;2022-08-18T12:54:11;10.90;;;4.20;;
66595;SDS011;59017;49.252;18.838;2022-08-18T12:56:38;8.35;;;4.32;;
66595;SDS011;59017;49.252;18.838;2022-08-18T12:59:05;7.55;;;4.32;;
66595;SDS011;59017;49.252;18.838;2022-08-18T13:01:32;10.18;;;4.20;;
66595;SDS011;59017;49.252;18.838;2022-08-18T13:03:59;9.93;;;4.13;;
66595;SDS011;59017;49.252;18.838;2022-08-18T13:06:25;6.30;;;4.30;;
66595;SDS011;59017;49.252;18.838;2022-08-18T13:08:51;7.03;;;4.38;;
66595;SDS011;59017;49.252;18.838;2022-08-18T13:11:18;8.02;;;4.78;;
66595;SDS011;59017;49.252;18.838;2022-08-18T13:13:44;7.90;;;5.05;;
66595;SDS011;59017;49.252;18.838;2022-08-18T13:16:10;5.00;;;4.22;;
66595;SDS011;59017;49.252;18.838;2022-08-18T13:18:37;8.82;;;4.82;;
66595;SDS011;59017;49.252;18.838;2022-08-18T13:21:06;7.72;;;4.85;;
66595;SDS011;59017;49.252;18.838;2022-08-18T13:23:34;5.85;;;4.38;;
66595;SDS011;59017;49.252;18.838;2022-08-18T13:26:00;6.85;;;4.40;;
66595;SDS011;59017;49.252;18.838;2022-08-18T13:28:26;13.45;;;4.97;;
66595;SDS011;59017;49.252;18.838;2022-08-18T13:30:53;7.97;;;5.15;;
66595;SDS011;59017;49.252;18.838;2022-08-18T13:33:18;12.65;;;5.30;;
66595;SDS011;59017;49.252;18.838;2022-08-18T13:35:44;11.90;;;5.07;;
66595;SDS011;59017;49.252;18.838;2022-08-18T13:38:12;8.90;;;5.45;;
66595;SDS011;59017;49.252;18.838;2022-08-18T13:40:44;8.13;;;5.45;;
66595;SDS011;59017;49.252;18.838;2022-08-18T13:43:15;8.63;;;5.55;;
66595;SDS011;59017;49.252;18.838;2022-08-18T13:45:41;8.73;;;5.35;;
66595;SDS011;59017;49.252;18.838;2022-08-18T13:48:08;8.00;;;5.28;;
66595;SDS011;59017;49.252;18.838;2022-08-18T13:50:34;9.70;;;5.50;;
66595;SDS011;59017;49.252;18.838;2022-08-18T13:53:04;9.35;;;5.32;;
66595;SDS011;59017;49.252;18.838;2022-08-18T13:55:30;9.70;;;5.32;;
66595;SDS011;59017;49.252;18.838;2022-08-18T13:57:56;8.20;;;5.03;;
66595;SDS011;59017;49.252;18.838;2022-08-18T14:00:22;13.63;;;5.53;;
66595;SDS011;59017;49.252;18.838;2022-08-18T14:02:49;10.82;;;5.15;;
66595;SDS011;59017;49.252;18.838;2022-08-18T14:05:21;7.45;;;5.10;;
66595;SDS011;59017;49.252;18.838;2022-08-18T14:07:47;10.55;;;5.40;;
66595;SDS011;59017;49.252;18.838;2022-08-18T14:10:13;5.93;;;5.07;;
66595;SDS011;59017;49.252;18.838;2022-08-18T14:12:39;14.65;;;5.60;;
66595;SDS011;59017;49.252;18.838;2022-08-18T14:15:07;12.20;;;5.60;;
66595;SDS011;59017;49.252;18.838;2022-08-18T14:17:35;6.32;;;5.32;;
66595;SDS011;59017;49.252;18.838;2022-08-18T14:20:02;10.68;;;5.22;;
66595;SDS011;59017;49.252;18.838;2022-08-18T14:22:51;11.10;;;6.00;;
66595;SDS011;59017;49.252;18.838;2022-08-18T14:25:36;7.00;;;5.20;;
66595;SDS011;59017;49.252;18.838;2022-08-18T14:28:39;7.03;;;4.97;;
66595;SDS011;59017;49.252;18.838;2022-08-18T14:31:05;8.35;;;5.78;;
66595;SDS011;59017;49.252;18.838;2022-08-18T14:33:31;9.82;;;5.35;;
66595;SDS011;59017;49.252;18.838;2022-08-18T14:35:56;6.82;;;5.28;;
66595;SDS011;59017;49.252;18.838;2022-08-18T14:38:22;8.13;;;6.20;;
66595;SDS011;59017;49.252;18.838;2022-08-18T14:40:48;6.95;;;5.75;;
66595;SDS011;59017;49.252;18.838;2022-08-18T14:43:15;10.10;;;5.40;;
66595;SDS011;59017;49.252;18.838;2022-08-18T14:45:45;7.43;;;5.82;;
66595;SDS011;59017;49.252;18.838;2022-08-18T14:48:13;7.18;;;5.63;;
66595;SDS011;59017;49.252;18.838;2022-08-18T14:50:41;13.20;;;6.22;;
66595;SDS011;59017;49.252;18.838;2022-08-18T14:53:08;8.40;;;5.68;;
66595;SDS011;59017;49.252;18.838;2022-08-18T14:55:34;8.70;;;5.35;;
66595;SDS011;59017;49.252;18.838;2022-08-18T14:58:02;9.90;;;5.40;;
66595;SDS011;59017;49.252;18.838;2022-08-18T15:00:28;16.02;;;6.20;;
66595;SDS011;59017;49.252;18.838;2022-08-18T15:02:53;12.38;;;5.82;;
66595;SDS011;59017;49.252;18.838;2022-08-18T15:05:21;10.63;;;6.05;;
66595;SDS011;59017;49.252;18.838;2022-08-18T15:07:47;11.93;;;5.97;;
66595;SDS011;59017;49.252;18.838;2022-08-18T15:10:13;11.68;;;5.32;;
66595;SDS011;59017;49.252;18.838;2022-08-18T15:12:39;8.52;;;5.70;;
66595;SDS011;59017;49.252;18.838;2022-08-18T15:15:06;10.95;;;5.63;;
66595;SDS011;59017;49.252;18.838;2022-08-18T15:17:34;8.55;;;5.70;;
66595;SDS011;59017;49.252;18.838;2022-08-18T15:20:03;10.93;;;5.68;;
66595;SDS011;59017;49.252;18.838;2022-08-18T15:22:31;7.00;;;6.10;;
66595;SDS011;59017;49.252;18.838;2022-08-18T15:25:15;10.93;;;5.80;;
66595;SDS011;59017;49.252;18.838;2022-08-18T15:27:59;9.07;;;5.80;;
66595;SDS011;59017;49.252;18.838;2022-08-18T15:30:24;9.07;;;5.75;;
66595;SDS011;59017;49.252;18.838;2022-08-18T15:32:50;8.63;;;5.45;;
66595;SDS011;59017;49.252;18.838;2022-08-18T15:35:16;12.00;;;6.32;;
66595;SDS011;59017;49.252;18.838;2022-08-18T15:37:44;9.25;;;5.50;;
66595;SDS011;59017;49.252;18.838;2022-08-18T15:40:13;8.02;;;5.60;;
66595;SDS011;59017;49.252;18.838;2022-08-18T15:42:44;7.78;;;6.28;;
66595;SDS011;59017;49.252;18.838;2022-08-18T15:45:13;9.43;;;6.03;;
66595;SDS011;59017;49.252;18.838;2022-08-18T15:47:40;7.63;;;5.82;;
66595;SDS011;59017;49.252;18.838;2022-08-18T15:50:07;9.88;;;6.05;;
66595;SDS011;59017;49.252;18.838;2022-08-18T15:52:33;12.50;;;6.68;;
66595;SDS011;59017;49.252;18.838;2022-08-18T15:55:02;11.60;;;5.90;;
66595;SDS011;59017;49.252;18.838;2022-08-18T15:57:28;10.00;;;6.20;;
66595;SDS011;59017;49.252;18.838;2022-08-18T15:59:54;8.75;;;6.13;;
66595;SDS011;59017;49.252;18.838;2022-08-18T16:02:21;7.93;;;6.25;;
66595;SDS011;59017;49.252;18.838;2022-08-18T16:04:48;9.07;;;6.03;;
66595;SDS011;59017;49.252;18.838;2022-08-18T16:07:13;8.68;;;6.15;;
66595;SDS011;59017;49.252;18.838;2022-08-18T16:09:39;9.48;;;6.00;;
66595;SDS011;59017;49.252;18.838;2022-08-18T16:12:06;12.32;;;6.07;;
66595;SDS011;59017;49.252;18.838;2022-08-18T16:14:35;11.13;;;6.20;;
66595;SDS011;59017;49.252;18.838;2022-08-18T16:17:02;8.73;;;5.93;;
66595;SDS011;59017;49.252;18.838;2022-08-18T16:19:27;11.68;;;6.72;;
66595;SDS011;59017;49.252;18.838;2022-08-18T16:21:54;8.00;;;6.35;;
66595;SDS011;59017;49.252;18.838;2022-08-18T16:24:20;13.27;;;7.05;;
66595;SDS011;59017;49.252;18.838;2022-08-18T16:26:47;7.25;;;6.18;;
66595;SDS011;59017;49.252;18.838;2022-08-18T16:29:13;9.00;;;6.65;;
66595;SDS011;59017;49.252;18.838;2022-08-18T16:31:39;9.05;;;6.22;;
66595;SDS011;59017;49.252;18.838;2022-08-18T16:34:05;11.23;;;6.75;;
66595;SDS011;59017;49.252;18.838;2022-08-18T16:36:31;11.32;;;7.13;;
66595;SDS011;59017;49.252;18.838;2022-08-18T16:38:56;13.15;;;7.60;;
66595;SDS011;59017;49.252;18.838;2022-08-18T16:41:22;14.18;;;7.55;;
66595;SDS011;59017;49.252;18.838;2022-08-18T16:43:49;16.98;;;8.38;;
66595;SDS011;59017;49.252;18.838;2022-08-18T16:46:16;20.45;;;9.18;;
66595;SDS011;59017;49.252;18.838;2022-08-18T16:48:45;21.40;;;8.73;;
66595;SDS011;59017;49.252;18.838;2022-08-18T16:51:14;19.90;;;9.07;;
66595;SDS011;59017;49.252;18.838;2022-08-18T16:53:42;26.13;;;10.18;;
66595;SDS011;59017;49.252;18.838;2022-08-18T16:56:12;22.30;;;9.57;;
66595;SDS011;59017;49.252;18.838;2022-08-18T16:58:42;16.33;;;9.15;;
66595;SDS011;59017;49.252;18.838;2022-08-18T17:01:26;18.13;;;9.38;;
66595;SDS011;59017;49.252;18.838;2022-08-18T17:04:11;21.35;;;8.75;;
66595;SDS011;59017;49.252;18.838;2022-08-18T17:06:39;23.70;;;9.23;;
66595;SDS011;59017;49.252;18.838;2022-08-18T17:09:05;20.63;;;8.77;;
66595;SDS011;59017;49.252;18.838;2022-08-18T17:11:31;17.98;;;8.57;;
66595;SDS011;59017;49.252;18.838;2022-08-18T17:13:58;21.55;;;10.02;;
66595;SDS011;59017;49.252;18.838;2022-08-18T17:16:26;20.40;;;9.38;;
66595;SDS011;59017;49.252;18.838;2022-08-18T17:18:53;19.58;;;9.25;;
66595;SDS011;59017;49.252;18.838;2022-08-18T17:21:21;16.05;;;9.18;;
66595;SDS011;59017;49.252;18.838;2022-08-18T17:23:49;15.45;;;8.43;;
66595;SDS011;59017;49.252;18.838;2022-08-18T17:26:34;14.15;;;7.95;;
66595;SDS011;59017;49.252;18.838;2022-08-18T17:31:36;16.25;;;7.68;;
66595;SDS011;59017;49.252;18.838;2022-08-18T17:34:06;14.63;;;8.07;;